sensor_id;sensor_type;location;lat;lon;timestamp;P1;durP1;ratioP1;P2;durP2;ratioP2
68216;SDS011;55037;52.354;4.992;2022-08-25T00:00:10;20.05;;;16.00;;
68216;SDS011;55037;52.354;4.992;2022-08-25T00:02:38;24.03;;;15.97;;
68216;SDS011;55037;52.354;4.992;2022-08-25T00:05:06;20.13;;;16.33;;
68216;SDS011;55037;52.354;4.992;2022-08-25T00:07:35;22.25;;;16.95;;
68216;SDS011;55037;52.354;4.992;2022-08-25T00:10:03;21.63;;;15.65;;
68216;SDS011;55037;52.354;4.992;2022-08-25T00:12:31;19.60;;;16.10;;
68216;SDS011;55037;52.354;4.992;2022-08-25T00:14:59;20.52;;;16.63;;
68216;SDS011;55037;52.354;4.992;2022-08-25T00:17:26;19.55;;;16.23;;
68216;SDS011;55037;52.354;4.992;2022-08-25T00:19:53;20.73;;;16.60;;
68216;SDS011;55037;52.354;4.992;2022-08-25T00:22:21;18.85;;;16.00;;
68216;SDS011;55037;52.354;4.992;2022-08-25T00:24:48;19.55;;;16.85;;
68216;SDS011;55037;52.354;4.992;2022-08-25T00:27:15;22.90;;;17.00;;
68216;SDS011;55037;52.354;4.992;2022-08-25T00:29:43;21.85;;;17.67;;
68216;SDS011;55037;52.354;4.992;2022-08-25T00:32:10;18.98;;;16.13;;
68216;SDS011;55037;52.354;4.992;2022-08-25T00:34:38;19.90;;;16.05;;
68216;SDS011;55037;52.354;4.992;2022-08-25T00:37:06;22.10;;;16.65;;
68216;SDS011;55037;52.354;4.992;2022-08-25T00:39:35;21.53;;;17.27;;
68216;SDS011;55037;52.354;4.992;2022-08-25T00:42:04;18.52;;;16.40;;
68216;SDS011;55037;52.354;4.992;2022-08-25T00:44:41;21.60;;;17.33;;
68216;SDS011;55037;52.354;4.992;2022-08-25T00:47:09;20.83;;;17.30;;
68216;SDS011;55037;52.354;4.992;2022-08-25T00:49:44;18.60;;;16.55;;
68216;SDS011;55037;52.354;4.992;2022-08-25T00:52:16;21.00;;;17.52;;
68216;SDS011;55037;52.354;4.992;2022-08-25T00:55:06;21.23;;;17.90;;
68216;SDS011;55037;52.354;4.992;2022-08-25T00:57:42;23.77;;;17.95;;
68216;SDS011;55037;52.354;4.992;2022-08-25T01:00:33;22.20;;;17.00;;
68216;SDS011;55037;52.354;4.992;2022-08-25T01:03:04;21.33;;;16.87;;
68216;SDS011;55037;52.354;4.992;2022-08-25T01:05:33;20.85;;;16.20;;
68216;SDS011;55037;52.354;4.992;2022-08-25T01:08:00;18.10;;;14.88;;
68216;SDS011;55037;52.354;4.992;2022-08-25T01:10:32;18.13;;;14.23;;
68216;SDS011;55037;52.354;4.992;2022-08-25T01:13:04;15.00;;;13.20;;
68216;SDS011;55037;52.354;4.992;2022-08-25T01:15:43;18.27;;;13.27;;
68216;SDS011;55037;52.354;4.992;2022-08-25T01:18:11;16.60;;;12.60;;
68216;SDS011;55037;52.354;4.992;2022-08-25T01:20:39;15.68;;;11.77;;
68216;SDS011;55037;52.354;4.992;2022-08-25T01:23:07;16.10;;;11.60;;
68216;SDS011;55037;52.354;4.992;2022-08-25T01:25:43;13.50;;;11.10;;
68216;SDS011;55037;52.354;4.992;2022-08-25T01:28:29;14.85;;;10.77;;
68216;SDS011;55037;52.354;4.992;2022-08-25T01:30:57;13.68;;;10.63;;
68216;SDS011;55037;52.354;4.992;2022-08-25T01:33:27;14.77;;;10.88;;
68216;SDS011;55037;52.354;4.992;2022-08-25T01:35:55;14.93;;;11.10;;
68216;SDS011;55037;52.354;4.992;2022-08-25T01:38:22;14.68;;;10.63;;
68216;SDS011;55037;52.354;4.992;2022-08-25T01:40:49;12.88;;;9.90;;
68216;SDS011;55037;52.354;4.992;2022-08-25T01:43:21;15.25;;;10.13;;
68216;SDS011;55037;52.354;4.992;2022-08-25T01:46:01;13.88;;;10.40;;
68216;SDS011;55037;52.354;4.992;2022-08-25T01:48:28;12.80;;;10.48;;
68216;SDS011;55037;52.354;4.992;2022-08-25T01:50:56;16.30;;;10.53;;
68216;SDS011;55037;52.354;4.992;2022-08-25T01:53:27;14.07;;;10.40;;
68216;SDS011;55037;52.354;4.992;2022-08-25T01:55:59;14.05;;;10.88;;
68216;SDS011;55037;52.354;4.992;2022-08-25T01:58:38;14.02;;;10.55;;
68216;SDS011;55037;52.354;4.992;2022-08-25T02:01:09;14.60;;;11.35;;
68216;SDS011;55037;52.354;4.992;2022-08-25T02:03:44;14.52;;;11.43;;
68216;SDS011;55037;52.354;4.992;2022-08-25T02:06:15;14.00;;;11.32;;
68216;SDS011;55037;52.354;4.992;2022-08-25T02:08:56;13.00;;;11.45;;
68216;SDS011;55037;52.354;4.992;2022-08-25T02:11:26;16.95;;;11.68;;
68216;SDS011;55037;52.354;4.992;2022-08-25T02:13:54;16.05;;;11.68;;
68216;SDS011;55037;52.354;4.992;2022-08-25T02:16:23;13.93;;;11.25;;
68216;SDS011;55037;52.354;4.992;2022-08-25T02:18:55;16.67;;;11.70;;
68216;SDS011;55037;52.354;4.992;2022-08-25T02:21:22;14.40;;;11.38;;
68216;SDS011;55037;52.354;4.992;2022-08-25T02:23:50;16.55;;;11.60;;
68216;SDS011;55037;52.354;4.992;2022-08-25T02:26:17;13.30;;;11.65;;
68216;SDS011;55037;52.354;4.992;2022-08-25T02:28:46;14.93;;;11.77;;
68216;SDS011;55037;52.354;4.992;2022-08-25T02:31:14;14.68;;;11.98;;
68216;SDS011;55037;52.354;4.992;2022-08-25T02:33:42;16.27;;;11.35;;
68216;SDS011;55037;52.354;4.992;2022-08-25T02:36:09;13.80;;;11.00;;
68216;SDS011;55037;52.354;4.992;2022-08-25T02:38:37;14.93;;;11.25;;
68216;SDS011;55037;52.354;4.992;2022-08-25T02:41:13;13.90;;;10.68;;
68216;SDS011;55037;52.354;4.992;2022-08-25T02:43:46;16.37;;;10.77;;
68216;SDS011;55037;52.354;4.992;2022-08-25T02:46:15;13.38;;;10.90;;
68216;SDS011;55037;52.354;4.992;2022-08-25T02:48:44;13.50;;;10.75;;
68216;SDS011;55037;52.354;4.992;2022-08-25T02:51:12;14.60;;;10.97;;
68216;SDS011;55037;52.354;4.992;2022-08-25T02:53:41;15.87;;;10.63;;
68216;SDS011;55037;52.354;4.992;2022-08-25T02:56:12;14.23;;;10.23;;
68216;SDS011;55037;52.354;4.992;2022-08-25T02:58:40;14.33;;;10.37;;
68216;SDS011;55037;52.354;4.992;2022-08-25T03:01:08;14.05;;;10.20;;
68216;SDS011;55037;52.354;4.992;2022-08-25T03:03:39;13.25;;;9.93;;
68216;SDS011;55037;52.354;4.992;2022-08-25T03:06:15;13.82;;;10.27;;
68216;SDS011;55037;52.354;4.992;2022-08-25T03:08:44;11.55;;;9.40;;
68216;SDS011;55037;52.354;4.992;2022-08-25T03:11:12;12.88;;;9.02;;
68216;SDS011;55037;52.354;4.992;2022-08-25T03:13:39;12.32;;;8.55;;
68216;SDS011;55037;52.354;4.992;2022-08-25T03:16:07;12.83;;;9.30;;
68216;SDS011;55037;52.354;4.992;2022-08-25T03:18:39;12.20;;;8.57;;
68216;SDS011;55037;52.354;4.992;2022-08-25T03:21:08;12.20;;;8.40;;
68216;SDS011;55037;52.354;4.992;2022-08-25T03:23:37;11.38;;;8.35;;
68216;SDS011;55037;52.354;4.992;2022-08-25T03:26:05;10.02;;;7.57;;
68216;SDS011;55037;52.354;4.992;2022-08-25T03:28:52;10.07;;;7.35;;
68216;SDS011;55037;52.354;4.992;2022-08-25T03:31:21;9.93;;;7.28;;
68216;SDS011;55037;52.354;4.992;2022-08-25T03:33:50;11.45;;;7.32;;
68216;SDS011;55037;52.354;4.992;2022-08-25T03:36:18;10.00;;;7.10;;
68216;SDS011;55037;52.354;4.992;2022-08-25T03:38:45;7.93;;;6.60;;
68216;SDS011;55037;52.354;4.992;2022-08-25T03:41:17;11.02;;;6.60;;
68216;SDS011;55037;52.354;4.992;2022-08-25T03:43:55;9.13;;;6.03;;
68216;SDS011;55037;52.354;4.992;2022-08-25T03:46:24;10.98;;;6.35;;
68216;SDS011;55037;52.354;4.992;2022-08-25T03:48:55;8.02;;;6.15;;
68216;SDS011;55037;52.354;4.992;2022-08-25T03:51:25;9.38;;;5.85;;
68216;SDS011;55037;52.354;4.992;2022-08-25T03:53:54;8.37;;;5.50;;
68216;SDS011;55037;52.354;4.992;2022-08-25T03:56:22;7.93;;;4.93;;
68216;SDS011;55037;52.354;4.992;2022-08-25T03:58:49;7.17;;;4.67;;
68216;SDS011;55037;52.354;4.992;2022-08-25T04:01:17;7.90;;;4.60;;
68216;SDS011;55037;52.354;4.992;2022-08-25T04:03:44;9.38;;;4.78;;
68216;SDS011;55037;52.354;4.992;2022-08-25T04:06:12;7.50;;;4.30;;
68216;SDS011;55037;52.354;4.992;2022-08-25T04:08:41;7.32;;;4.47;;
68216;SDS011;55037;52.354;4.992;2022-08-25T04:11:09;8.13;;;4.25;;
68216;SDS011;55037;52.354;4.992;2022-08-25T04:13:39;7.22;;;4.20;;
68216;SDS011;55037;52.354;4.992;2022-08-25T04:16:15;9.30;;;4.40;;
68216;SDS011;55037;52.354;4.992;2022-08-25T04:18:45;8.53;;;4.27;;
68216;SDS011;55037;52.354;4.992;2022-08-25T04:21:13;10.07;;;4.40;;
68216;SDS011;55037;52.354;4.992;2022-08-25T04:23:42;7.00;;;4.00;;
68216;SDS011;55037;52.354;4.992;2022-08-25T04:26:11;6.40;;;4.00;;
68216;SDS011;55037;52.354;4.992;2022-08-25T04:28:40;8.05;;;4.03;;
68216;SDS011;55037;52.354;4.992;2022-08-25T04:31:08;6.43;;;3.80;;
68216;SDS011;55037;52.354;4.992;2022-08-25T04:33:37;6.53;;;3.97;;
68216;SDS011;55037;52.354;4.992;2022-08-25T04:36:04;7.37;;;4.20;;
68216;SDS011;55037;52.354;4.992;2022-08-25T04:38:38;9.00;;;4.03;;
68216;SDS011;55037;52.354;4.992;2022-08-25T04:41:07;6.50;;;4.07;;
68216;SDS011;55037;52.354;4.992;2022-08-25T04:43:37;8.65;;;4.00;;
68216;SDS011;55037;52.354;4.992;2022-08-25T04:46:08;6.88;;;3.78;;
68216;SDS011;55037;52.354;4.992;2022-08-25T04:48:46;7.22;;;3.50;;
68216;SDS011;55037;52.354;4.992;2022-08-25T04:51:16;9.95;;;3.85;;
68216;SDS011;55037;52.354;4.992;2022-08-25T04:53:46;6.65;;;3.60;;
68216;SDS011;55037;52.354;4.992;2022-08-25T04:56:14;6.20;;;3.65;;
68216;SDS011;55037;52.354;4.992;2022-08-25T04:58:43;6.85;;;3.88;;
68216;SDS011;55037;52.354;4.992;2022-08-25T05:01:13;8.18;;;4.03;;
68216;SDS011;55037;52.354;4.992;2022-08-25T05:03:43;9.30;;;3.60;;
68216;SDS011;55037;52.354;4.992;2022-08-25T05:06:12;8.70;;;3.90;;
68216;SDS011;55037;52.354;4.992;2022-08-25T05:08:42;7.43;;;3.65;;
68216;SDS011;55037;52.354;4.992;2022-08-25T05:11:12;7.55;;;3.70;;
68216;SDS011;55037;52.354;4.992;2022-08-25T05:13:45;8.38;;;3.60;;
68216;SDS011;55037;52.354;4.992;2022-08-25T05:16:18;7.43;;;3.65;;
68216;SDS011;55037;52.354;4.992;2022-08-25T05:18:47;6.63;;;3.40;;
68216;SDS011;55037;52.354;4.992;2022-08-25T05:21:16;7.85;;;3.30;;
68216;SDS011;55037;52.354;4.992;2022-08-25T05:23:46;7.15;;;3.55;;
68216;SDS011;55037;52.354;4.992;2022-08-25T05:26:20;8.52;;;3.58;;
68216;SDS011;55037;52.354;4.992;2022-08-25T05:28:48;6.53;;;3.50;;
68216;SDS011;55037;52.354;4.992;2022-08-25T05:31:17;6.53;;;3.42;;
68216;SDS011;55037;52.354;4.992;2022-08-25T05:33:45;6.05;;;3.10;;
68216;SDS011;55037;52.354;4.992;2022-08-25T05:36:13;5.68;;;3.30;;
68216;SDS011;55037;52.354;4.992;2022-08-25T05:38:42;6.97;;;3.20;;
68216;SDS011;55037;52.354;4.992;2022-08-25T05:41:11;5.90;;;3.40;;
68216;SDS011;55037;52.354;4.992;2022-08-25T05:43:44;8.07;;;3.40;;
68216;SDS011;55037;52.354;4.992;2022-08-25T05:46:14;6.82;;;3.58;;
68216;SDS011;55037;52.354;4.992;2022-08-25T05:48:42;6.45;;;3.45;;
68216;SDS011;55037;52.354;4.992;2022-08-25T05:51:11;6.05;;;3.33;;
68216;SDS011;55037;52.354;4.992;2022-08-25T05:53:41;6.18;;;3.63;;
68216;SDS011;55037;52.354;4.992;2022-08-25T05:56:09;6.83;;;3.40;;
68216;SDS011;55037;52.354;4.992;2022-08-25T05:58:37;6.70;;;3.30;;
68216;SDS011;55037;52.354;4.992;2022-08-25T06:01:05;7.07;;;3.60;;
68216;SDS011;55037;52.354;4.992;2022-08-25T06:03:50;8.88;;;3.58;;
68216;SDS011;55037;52.354;4.992;2022-08-25T06:06:22;11.18;;;3.72;;
68216;SDS011;55037;52.354;4.992;2022-08-25T06:08:51;10.30;;;3.67;;
68216;SDS011;55037;52.354;4.992;2022-08-25T06:11:18;13.03;;;3.93;;
68216;SDS011;55037;52.354;4.992;2022-08-25T06:13:45;7.40;;;3.63;;
68216;SDS011;55037;52.354;4.992;2022-08-25T06:16:12;7.80;;;3.53;;
68216;SDS011;55037;52.354;4.992;2022-08-25T06:18:40;8.77;;;3.47;;
68216;SDS011;55037;52.354;4.992;2022-08-25T06:21:11;10.00;;;3.60;;
68216;SDS011;55037;52.354;4.992;2022-08-25T06:23:40;7.00;;;3.60;;
68216;SDS011;55037;52.354;4.992;2022-08-25T06:26:10;8.60;;;3.80;;
68216;SDS011;55037;52.354;4.992;2022-08-25T06:28:47;7.68;;;3.35;;
68216;SDS011;55037;52.354;4.992;2022-08-25T06:31:16;7.40;;;3.58;;
68216;SDS011;55037;52.354;4.992;2022-08-25T06:33:45;8.00;;;3.40;;
68216;SDS011;55037;52.354;4.992;2022-08-25T06:36:12;10.02;;;3.83;;
68216;SDS011;55037;52.354;4.992;2022-08-25T06:38:41;8.25;;;3.60;;
68216;SDS011;55037;52.354;4.992;2022-08-25T06:41:08;11.63;;;3.72;;
68216;SDS011;55037;52.354;4.992;2022-08-25T06:43:40;9.27;;;3.50;;
68216;SDS011;55037;52.354;4.992;2022-08-25T06:46:20;8.43;;;3.50;;
68216;SDS011;55037;52.354;4.992;2022-08-25T06:49:02;9.37;;;3.33;;
68216;SDS011;55037;52.354;4.992;2022-08-25T06:51:30;10.65;;;3.65;;
68216;SDS011;55037;52.354;4.992;2022-08-25T06:53:59;10.20;;;3.47;;
68216;SDS011;55037;52.354;4.992;2022-08-25T06:56:26;9.50;;;3.57;;
68216;SDS011;55037;52.354;4.992;2022-08-25T06:58:53;11.87;;;3.70;;
68216;SDS011;55037;52.354;4.992;2022-08-25T07:01:22;9.33;;;3.30;;
68216;SDS011;55037;52.354;4.992;2022-08-25T07:03:56;7.32;;;3.47;;
68216;SDS011;55037;52.354;4.992;2022-08-25T07:06:26;7.35;;;3.45;;
68216;SDS011;55037;52.354;4.992;2022-08-25T07:08:55;6.78;;;3.20;;
68216;SDS011;55037;52.354;4.992;2022-08-25T07:11:22;7.10;;;3.03;;
68216;SDS011;55037;52.354;4.992;2022-08-25T07:13:50;7.55;;;3.42;;
68216;SDS011;55037;52.354;4.992;2022-08-25T07:16:17;10.33;;;3.50;;
68216;SDS011;55037;52.354;4.992;2022-08-25T07:18:46;8.98;;;3.08;;
68216;SDS011;55037;52.354;4.992;2022-08-25T07:21:14;6.93;;;3.00;;
68216;SDS011;55037;52.354;4.992;2022-08-25T07:23:41;7.20;;;3.53;;
68216;SDS011;55037;52.354;4.992;2022-08-25T07:26:13;6.28;;;3.10;;
68216;SDS011;55037;52.354;4.992;2022-08-25T07:29:04;11.65;;;3.35;;
68216;SDS011;55037;52.354;4.992;2022-08-25T07:31:33;11.57;;;3.03;;
68216;SDS011;55037;52.354;4.992;2022-08-25T07:34:01;6.07;;;3.10;;
68216;SDS011;55037;52.354;4.992;2022-08-25T07:36:46;8.52;;;3.20;;
68216;SDS011;55037;52.354;4.992;2022-08-25T07:39:14;8.18;;;3.17;;
68216;SDS011;55037;52.354;4.992;2022-08-25T07:41:42;7.90;;;3.13;;
68216;SDS011;55037;52.354;4.992;2022-08-25T07:44:10;7.30;;;3.15;;
68216;SDS011;55037;52.354;4.992;2022-08-25T07:46:38;6.13;;;2.87;;
68216;SDS011;55037;52.354;4.992;2022-08-25T07:49:08;7.95;;;3.00;;
68216;SDS011;55037;52.354;4.992;2022-08-25T07:51:43;7.57;;;2.90;;
68216;SDS011;55037;52.354;4.992;2022-08-25T07:54:31;6.78;;;2.78;;
68216;SDS011;55037;52.354;4.992;2022-08-25T07:57:01;6.75;;;2.90;;
68216;SDS011;55037;52.354;4.992;2022-08-25T07:59:29;6.93;;;2.88;;
68216;SDS011;55037;52.354;4.992;2022-08-25T08:02:07;7.68;;;2.88;;
68216;SDS011;55037;52.354;4.992;2022-08-25T08:04:48;7.57;;;3.28;;
68216;SDS011;55037;52.354;4.992;2022-08-25T08:07:17;7.38;;;2.65;;
68216;SDS011;55037;52.354;4.992;2022-08-25T08:09:46;7.13;;;2.90;;
68216;SDS011;55037;52.354;4.992;2022-08-25T08:12:22;9.48;;;3.00;;
68216;SDS011;55037;52.354;4.992;2022-08-25T08:14:50;6.25;;;2.90;;
68216;SDS011;55037;52.354;4.992;2022-08-25T08:17:18;6.65;;;2.85;;
68216;SDS011;55037;52.354;4.992;2022-08-25T08:19:46;5.50;;;2.72;;
68216;SDS011;55037;52.354;4.992;2022-08-25T08:22:13;8.48;;;2.83;;
68216;SDS011;55037;52.354;4.992;2022-08-25T08:24:42;7.97;;;3.03;;
68216;SDS011;55037;52.354;4.992;2022-08-25T08:27:21;9.57;;;3.03;;
68216;SDS011;55037;52.354;4.992;2022-08-25T08:29:49;4.55;;;2.90;;
68216;SDS011;55037;52.354;4.992;2022-08-25T08:32:16;6.00;;;2.90;;
68216;SDS011;55037;52.354;4.992;2022-08-25T08:34:44;8.38;;;2.97;;
68216;SDS011;55037;52.354;4.992;2022-08-25T08:37:17;8.52;;;3.28;;
68216;SDS011;55037;52.354;4.992;2022-08-25T08:39:48;6.90;;;3.07;;
68216;SDS011;55037;52.354;4.992;2022-08-25T08:45:05;6.33;;;2.97;;
68216;SDS011;55037;52.354;4.992;2022-08-25T08:47:56;8.63;;;3.40;;
68216;SDS011;55037;52.354;4.992;2022-08-25T08:51:24;9.15;;;3.33;;
68216;SDS011;55037;52.354;4.992;2022-08-25T08:56:19;9.93;;;3.30;;
68216;SDS011;55037;52.354;4.992;2022-08-25T08:59:08;6.70;;;3.20;;
68216;SDS011;55037;52.354;4.992;2022-08-25T09:01:44;8.55;;;3.47;;
68216;SDS011;55037;52.354;4.992;2022-08-25T09:04:32;12.10;;;3.80;;
68216;SDS011;55037;52.354;4.992;2022-08-25T09:07:07;9.55;;;3.83;;
68216;SDS011;55037;52.354;4.992;2022-08-25T09:09:39;9.63;;;4.03;;
68216;SDS011;55037;52.354;4.992;2022-08-25T09:15:18;8.63;;;4.35;;
68216;SDS011;55037;52.354;4.992;2022-08-25T09:18:04;10.57;;;4.40;;
68216;SDS011;55037;52.354;4.992;2022-08-25T09:21:02;6.25;;;4.15;;
68216;SDS011;55037;52.354;4.992;2022-08-25T09:23:58;7.50;;;4.10;;
68216;SDS011;55037;52.354;4.992;2022-08-25T09:26:44;9.98;;;4.18;;
68216;SDS011;55037;52.354;4.992;2022-08-25T09:29:23;8.73;;;4.20;;
68216;SDS011;55037;52.354;4.992;2022-08-25T09:31:54;7.50;;;4.60;;
68216;SDS011;55037;52.354;4.992;2022-08-25T09:34:27;7.85;;;4.28;;
68216;SDS011;55037;52.354;4.992;2022-08-25T09:36:59;7.85;;;4.15;;
68216;SDS011;55037;52.354;4.992;2022-08-25T09:39:26;6.53;;;4.30;;
68216;SDS011;55037;52.354;4.992;2022-08-25T09:41:55;10.40;;;4.75;;
68216;SDS011;55037;52.354;4.992;2022-08-25T09:44:26;9.63;;;4.70;;
68216;SDS011;55037;52.354;4.992;2022-08-25T09:46:58;10.85;;;4.65;;
68216;SDS011;55037;52.354;4.992;2022-08-25T09:49:35;9.13;;;4.18;;
68216;SDS011;55037;52.354;4.992;2022-08-25T09:52:51;9.88;;;4.70;;
68216;SDS011;55037;52.354;4.992;2022-08-25T09:55:15;7.75;;;5.68;;
68216;SDS011;55037;52.354;4.992;2022-08-25T09:57:50;7.28;;;5.03;;
68216;SDS011;55037;52.354;4.992;2022-08-25T10:00:27;8.10;;;5.40;;
68216;SDS011;55037;52.354;4.992;2022-08-25T10:08:37;8.15;;;3.95;;
68216;SDS011;55037;52.354;4.992;2022-08-25T10:11:11;6.37;;;4.90;;
68216;SDS011;55037;52.354;4.992;2022-08-25T10:13:42;7.18;;;4.85;;
68216;SDS011;55037;52.354;4.992;2022-08-25T10:19:05;6.88;;;4.25;;
68216;SDS011;55037;52.354;4.992;2022-08-25T10:21:38;6.53;;;5.13;;
68216;SDS011;55037;52.354;4.992;2022-08-25T10:24:18;6.50;;;4.35;;
68216;SDS011;55037;52.354;4.992;2022-08-25T10:34:53;8.70;;;5.13;;
68216;SDS011;55037;52.354;4.992;2022-08-25T10:37:26;7.28;;;4.43;;
68216;SDS011;55037;52.354;4.992;2022-08-25T10:40:14;7.43;;;4.90;;
68216;SDS011;55037;52.354;4.992;2022-08-25T10:43:02;10.30;;;4.88;;
68216;SDS011;55037;52.354;4.992;2022-08-25T10:45:50;7.55;;;4.60;;
68216;SDS011;55037;52.354;4.992;2022-08-25T10:56:37;6.80;;;4.95;;
68216;SDS011;55037;52.354;4.992;2022-08-25T11:04:28;7.65;;;4.18;;
68216;SDS011;55037;52.354;4.992;2022-08-25T11:07:07;8.07;;;4.13;;
68216;SDS011;55037;52.354;4.992;2022-08-25T11:09:46;5.20;;;4.00;;
68216;SDS011;55037;52.354;4.992;2022-08-25T11:12:29;6.53;;;3.83;;
68216;SDS011;55037;52.354;4.992;2022-08-25T11:15:14;6.95;;;3.70;;
68216;SDS011;55037;52.354;4.992;2022-08-25T11:17:54;9.68;;;4.55;;
68216;SDS011;55037;52.354;4.992;2022-08-25T11:20:26;6.15;;;3.55;;
68216;SDS011;55037;52.354;4.992;2022-08-25T11:23:19;6.75;;;4.20;;
68216;SDS011;55037;52.354;4.992;2022-08-25T11:25:51;4.10;;;3.40;;
68216;SDS011;55037;52.354;4.992;2022-08-25T11:31:07;4.65;;;3.55;;
68216;SDS011;55037;52.354;4.992;2022-08-25T11:33:35;5.95;;;3.70;;
68216;SDS011;55037;52.354;4.992;2022-08-25T11:53:24;7.05;;;3.70;;
68216;SDS011;55037;52.354;4.992;2022-08-25T11:55:58;6.95;;;3.72;;
68216;SDS011;55037;52.354;4.992;2022-08-25T11:58:35;4.68;;;3.63;;
68216;SDS011;55037;52.354;4.992;2022-08-25T12:01:10;5.63;;;4.13;;
68216;SDS011;55037;52.354;4.992;2022-08-25T12:04:40;7.25;;;3.65;;
68216;SDS011;55037;52.354;4.992;2022-08-25T12:07:15;4.80;;;3.97;;
68216;SDS011;55037;52.354;4.992;2022-08-25T12:12:29;6.93;;;3.80;;
68216;SDS011;55037;52.354;4.992;2022-08-25T12:15:13;6.03;;;3.70;;
68216;SDS011;55037;52.354;4.992;2022-08-25T12:18:11;5.75;;;3.78;;
68216;SDS011;55037;52.354;4.992;2022-08-25T12:26:06;5.93;;;4.20;;
68216;SDS011;55037;52.354;4.992;2022-08-25T12:32:05;5.97;;;4.20;;
68216;SDS011;55037;52.354;4.992;2022-08-25T12:37:32;6.50;;;3.80;;
68216;SDS011;55037;52.354;4.992;2022-08-25T12:40:03;5.75;;;3.70;;
68216;SDS011;55037;52.354;4.992;2022-08-25T12:42:40;6.75;;;4.50;;
68216;SDS011;55037;52.354;4.992;2022-08-25T12:47:50;5.65;;;4.28;;
68216;SDS011;55037;52.354;4.992;2022-08-25T12:50:27;6.10;;;4.63;;
68216;SDS011;55037;52.354;4.992;2022-08-25T12:53:06;5.70;;;4.28;;
68216;SDS011;55037;52.354;4.992;2022-08-25T12:55:43;6.28;;;4.32;;
68216;SDS011;55037;52.354;4.992;2022-08-25T12:58:15;9.30;;;4.47;;
68216;SDS011;55037;52.354;4.992;2022-08-25T13:00:50;6.60;;;4.32;;
68216;SDS011;55037;52.354;4.992;2022-08-25T13:07:00;4.95;;;4.53;;
68216;SDS011;55037;52.354;4.992;2022-08-25T13:15:36;8.13;;;3.93;;
68216;SDS011;55037;52.354;4.992;2022-08-25T13:18:18;5.78;;;3.97;;
68216;SDS011;55037;52.354;4.992;2022-08-25T13:20:53;6.35;;;3.97;;
68216;SDS011;55037;52.354;4.992;2022-08-25T13:23:29;7.32;;;4.50;;
68216;SDS011;55037;52.354;4.992;2022-08-25T13:25:59;6.53;;;4.88;;
68216;SDS011;55037;52.354;4.992;2022-08-25T13:28:31;6.03;;;4.50;;
68216;SDS011;55037;52.354;4.992;2022-08-25T13:31:03;6.35;;;3.83;;
68216;SDS011;55037;52.354;4.992;2022-08-25T13:33:48;5.32;;;4.30;;
68216;SDS011;55037;52.354;4.992;2022-08-25T13:36:21;5.97;;;4.72;;
68216;SDS011;55037;52.354;4.992;2022-08-25T13:39:24;7.07;;;4.45;;
68216;SDS011;55037;52.354;4.992;2022-08-25T13:42:13;6.50;;;4.97;;
68216;SDS011;55037;52.354;4.992;2022-08-25T13:44:43;6.47;;;5.43;;
68216;SDS011;55037;52.354;4.992;2022-08-25T13:47:33;6.80;;;5.88;;
68216;SDS011;55037;52.354;4.992;2022-08-25T13:52:49;5.88;;;5.05;;
68216;SDS011;55037;52.354;4.992;2022-08-25T13:55:25;6.95;;;4.85;;
68216;SDS011;55037;52.354;4.992;2022-08-25T13:58:18;6.67;;;4.93;;
68216;SDS011;55037;52.354;4.992;2022-08-25T14:01:14;7.68;;;5.70;;
68216;SDS011;55037;52.354;4.992;2022-08-25T14:15:06;7.00;;;5.97;;
68216;SDS011;55037;52.354;4.992;2022-08-25T14:18:05;7.38;;;6.68;;
68216;SDS011;55037;52.354;4.992;2022-08-25T14:20:44;7.75;;;5.88;;
68216;SDS011;55037;52.354;4.992;2022-08-25T14:23:22;5.75;;;5.15;;
68216;SDS011;55037;52.354;4.992;2022-08-25T14:25:54;7.25;;;5.55;;
68216;SDS011;55037;52.354;4.992;2022-08-25T14:28:24;5.93;;;4.53;;
68216;SDS011;55037;52.354;4.992;2022-08-25T14:30:58;5.00;;;4.18;;
68216;SDS011;55037;52.354;4.992;2022-08-25T14:33:39;5.00;;;3.60;;
68216;SDS011;55037;52.354;4.992;2022-08-25T14:36:19;5.28;;;3.97;;
68216;SDS011;55037;52.354;4.992;2022-08-25T14:38:47;6.95;;;4.13;;
68216;SDS011;55037;52.354;4.992;2022-08-25T14:41:21;5.60;;;3.65;;
68216;SDS011;55037;52.354;4.992;2022-08-25T14:43:49;6.28;;;4.43;;
68216;SDS011;55037;52.354;4.992;2022-08-25T14:46:22;5.32;;;4.22;;
68216;SDS011;55037;52.354;4.992;2022-08-25T14:48:53;6.78;;;4.22;;
68216;SDS011;55037;52.354;4.992;2022-08-25T14:51:25;5.20;;;4.13;;
68216;SDS011;55037;52.354;4.992;2022-08-25T14:53:56;8.05;;;4.53;;
68216;SDS011;55037;52.354;4.992;2022-08-25T14:56:26;9.27;;;5.03;;
68216;SDS011;55037;52.354;4.992;2022-08-25T14:58:55;6.10;;;4.57;;
68216;SDS011;55037;52.354;4.992;2022-08-25T15:01:25;8.32;;;4.70;;
68216;SDS011;55037;52.354;4.992;2022-08-25T15:03:57;7.57;;;4.20;;
68216;SDS011;55037;52.354;4.992;2022-08-25T15:06:29;6.97;;;4.95;;
68216;SDS011;55037;52.354;4.992;2022-08-25T15:08:56;6.55;;;4.63;;
68216;SDS011;55037;52.354;4.992;2022-08-25T15:11:42;6.03;;;4.07;;
68216;SDS011;55037;52.354;4.992;2022-08-25T15:14:11;9.23;;;5.67;;
68216;SDS011;55037;52.354;4.992;2022-08-25T15:16:48;6.03;;;5.10;;
68216;SDS011;55037;52.354;4.992;2022-08-25T15:19:18;7.97;;;4.77;;
68216;SDS011;55037;52.354;4.992;2022-08-25T15:21:49;6.73;;;4.50;;
68216;SDS011;55037;52.354;4.992;2022-08-25T15:24:17;6.63;;;5.15;;
68216;SDS011;55037;52.354;4.992;2022-08-25T15:26:49;7.97;;;4.05;;
68216;SDS011;55037;52.354;4.992;2022-08-25T15:29:20;6.47;;;4.80;;
68216;SDS011;55037;52.354;4.992;2022-08-25T15:31:49;6.67;;;4.47;;
68216;SDS011;55037;52.354;4.992;2022-08-25T15:34:16;6.53;;;4.70;;
68216;SDS011;55037;52.354;4.992;2022-08-25T15:36:44;7.78;;;4.20;;
68216;SDS011;55037;52.354;4.992;2022-08-25T15:39:13;5.85;;;4.35;;
68216;SDS011;55037;52.354;4.992;2022-08-25T15:41:44;6.93;;;4.45;;
68216;SDS011;55037;52.354;4.992;2022-08-25T15:44:15;8.70;;;4.27;;
68216;SDS011;55037;52.354;4.992;2022-08-25T15:46:43;6.63;;;5.18;;
68216;SDS011;55037;52.354;4.992;2022-08-25T15:49:16;6.07;;;4.40;;
68216;SDS011;55037;52.354;4.992;2022-08-25T15:51:52;6.57;;;4.57;;
68216;SDS011;55037;52.354;4.992;2022-08-25T15:54:21;11.15;;;5.60;;
68216;SDS011;55037;52.354;4.992;2022-08-25T15:56:49;9.75;;;5.22;;
68216;SDS011;55037;52.354;4.992;2022-08-25T15:59:18;11.55;;;5.78;;
68216;SDS011;55037;52.354;4.992;2022-08-25T16:01:50;6.70;;;5.47;;
68216;SDS011;55037;52.354;4.992;2022-08-25T16:04:21;6.97;;;4.70;;
68216;SDS011;55037;52.354;4.992;2022-08-25T16:06:50;10.63;;;5.35;;
68216;SDS011;55037;52.354;4.992;2022-08-25T16:09:18;9.23;;;6.47;;
68216;SDS011;55037;52.354;4.992;2022-08-25T16:11:49;11.80;;;6.57;;
68216;SDS011;55037;52.354;4.992;2022-08-25T16:14:24;13.68;;;6.97;;
68216;SDS011;55037;52.354;4.992;2022-08-25T16:16:54;12.50;;;8.53;;
68216;SDS011;55037;52.354;4.992;2022-08-25T16:19:28;11.80;;;8.07;;
68216;SDS011;55037;52.354;4.992;2022-08-25T16:21:55;12.88;;;8.35;;
68216;SDS011;55037;52.354;4.992;2022-08-25T16:24:23;15.18;;;9.45;;
68216;SDS011;55037;52.354;4.992;2022-08-25T16:26:52;13.97;;;10.37;;
68216;SDS011;55037;52.354;4.992;2022-08-25T16:29:22;19.02;;;12.48;;
68216;SDS011;55037;52.354;4.992;2022-08-25T16:31:49;17.40;;;12.40;;
68216;SDS011;55037;52.354;4.992;2022-08-25T16:34:21;21.13;;;14.48;;
68216;SDS011;55037;52.354;4.992;2022-08-25T16:36:54;19.15;;;14.00;;
68216;SDS011;55037;52.354;4.992;2022-08-25T16:39:21;20.58;;;13.90;;
68216;SDS011;55037;52.354;4.992;2022-08-25T16:41:50;20.33;;;14.88;;
68216;SDS011;55037;52.354;4.992;2022-08-25T16:44:18;18.63;;;15.00;;
68216;SDS011;55037;52.354;4.992;2022-08-25T16:46:49;22.33;;;15.57;;
68216;SDS011;55037;52.354;4.992;2022-08-25T16:49:20;24.70;;;15.30;;
68216;SDS011;55037;52.354;4.992;2022-08-25T16:51:51;22.60;;;17.03;;